JBU1084 KSAN-KSLC
Flight info
| Callsign | JBU1084 |
|---|---|
| Flight time | 1h 29m |
| Altitude | 34000 |
| Route | ZZOOO4 MTBAL CADEZ HAKMN/N0442F350 Q73 LAKRR MLF QWENN6 |
| Aircraft | A321/M-SDE3FGHIRWY/LB1 |
Departure
| Time | 2026-05-04 03:55 |
|---|---|
| Airport | San Diego International Airport (KSAN) |
Arrival
| Time | 2026-05-04 05:24 |
|---|---|
| Airport | Salt Lake City International Airport (KSLC) |
| Time | Latitude | Longitude | Altitude | Speed | Heading |
|---|---|---|---|---|---|
| 2026-05-04 03:29 | 32.73379 | -117.19859 | 23 ft | 0 kts | 174° |
| 2026-05-04 03:44 | 32.73383 | -117.19860 | 23 ft | 3 kts | 174° |
| 2026-05-04 03:44 | 32.73410 | -117.19862 | 24 ft | 4 kts | 178° |
| 2026-05-04 03:44 | 32.73437 | -117.19863 | 24 ft | 4 kts | 177° |
| 2026-05-04 03:45 | 32.73457 | -117.19865 | 24 ft | 4 kts | 159° |
| 2026-05-04 03:45 | 32.73474 | -117.19883 | 25 ft | 3 kts | 107° |
| 2026-05-04 03:45 | 32.73480 | -117.19907 | 25 ft | 1 kts | 106° |
| 2026-05-04 03:45 | 32.73480 | -117.19908 | 25 ft | 0 kts | 106° |
| 2026-05-04 03:50 | 32.73478 | -117.19896 | 25 ft | 6 kts | 106° |
| 2026-05-04 03:50 | 32.73456 | -117.19808 | 23 ft | 16 kts | 106° |
| 2026-05-04 03:50 | 32.73417 | -117.19649 | 25 ft | 22 kts | 106° |
| 2026-05-04 03:51 | 32.73375 | -117.19477 | 25 ft | 23 kts | 106° |
| 2026-05-04 03:51 | 32.73345 | -117.19351 | 25 ft | 24 kts | 106° |
| 2026-05-04 03:51 | 32.73287 | -117.19102 | 24 ft | 22 kts | 105° |
| 2026-05-04 03:51 | 32.73241 | -117.18924 | 23 ft | 23 kts | 105° |
| 2026-05-04 03:52 | 32.73198 | -117.18742 | 23 ft | 23 kts | 105° |
| 2026-05-04 03:52 | 32.73154 | -117.18557 | 24 ft | 24 kts | 106° |
| 2026-05-04 03:52 | 32.73123 | -117.18431 | 23 ft | 23 kts | 106° |
| 2026-05-04 03:52 | 32.73078 | -117.18244 | 23 ft | 24 kts | 106° |
| 2026-05-04 03:53 | 32.73033 | -117.18054 | 23 ft | 24 kts | 106° |
| 2026-05-04 03:53 | 32.72985 | -117.17864 | 23 ft | 24 kts | 108° |
| 2026-05-04 03:53 | 32.72951 | -117.17702 | 23 ft | 2 kts | 71° |
| 2026-05-04 03:53 | 32.72954 | -117.17690 | 23 ft | 6 kts | 71° |
| 2026-05-04 03:54 | 32.73017 | -117.17611 | 26 ft | 14 kts | 354° |
| 2026-05-04 03:54 | 32.73048 | -117.17675 | 23 ft | 15 kts | 279° |
| 2026-05-04 03:54 | 32.73150 | -117.18121 | 24 ft | 98 kts | 287° |
| 2026-05-04 03:54 | 32.73405 | -117.19179 | 40 ft | 164 kts | 284° |
| 2026-05-04 03:55 | 32.73750 | -117.20505 | 821 ft | 171 kts | 287° |
| 2026-05-04 03:55 | 32.74097 | -117.21868 | 1758 ft | 176 kts | 285° |
| 2026-05-04 03:55 | 32.74456 | -117.23369 | 2327 ft | 203 kts | 285° |
| 2026-05-04 03:55 | 32.74864 | -117.25099 | 2799 ft | 232 kts | 285° |
| 2026-05-04 03:56 | 32.75330 | -117.27073 | 3264 ft | 265 kts | 285° |
| 2026-05-04 03:56 | 32.75831 | -117.29173 | 3747 ft | 248 kts | 285° |
| 2026-05-04 03:56 | 32.76281 | -117.31030 | 4483 ft | 228 kts | 285° |
| 2026-05-04 03:56 | 32.76526 | -117.32855 | 5350 ft | 222 kts | 261° |
| 2026-05-04 03:57 | 32.75844 | -117.34423 | 6204 ft | 215 kts | 222° |
| 2026-05-04 03:57 | 32.74525 | -117.35190 | 6956 ft | 215 kts | 191° |
| 2026-05-04 03:57 | 32.72971 | -117.34985 | 7217 ft | 244 kts | 160° |
| 2026-05-04 03:57 | 32.71453 | -117.33886 | 7235 ft | 262 kts | 145° |
| 2026-05-04 03:58 | 32.68742 | -117.30935 | 7641 ft | 267 kts | 139° |
| 2026-05-04 03:58 | 32.67414 | -117.29386 | 7888 ft | 268 kts | 140° |
| 2026-05-04 03:58 | 32.66073 | -117.27850 | 8133 ft | 268 kts | 140° |
| 2026-05-04 03:59 | 32.64715 | -117.26327 | 8386 ft | 269 kts | 139° |
| 2026-05-04 03:59 | 32.63573 | -117.24542 | 8636 ft | 276 kts | 121° |
| 2026-05-04 03:59 | 32.62934 | -117.22325 | 8898 ft | 297 kts | 101° |
| 2026-05-04 03:59 | 32.62703 | -117.19842 | 9154 ft | 306 kts | 98° |
| 2026-05-04 04:00 | 32.62481 | -117.17320 | 9420 ft | 309 kts | 99° |
| 2026-05-04 04:00 | 32.62252 | -117.14778 | 9724 ft | 310 kts | 100° |
| 2026-05-04 04:00 | 32.62080 | -117.12204 | 10219 ft | 319 kts | 92° |
| 2026-05-04 04:00 | 32.62309 | -117.09548 | 10685 ft | 330 kts | 79° |
| 2026-05-04 04:01 | 32.63009 | -117.06918 | 11180 ft | 340 kts | 69° |
| 2026-05-04 04:01 | 32.63885 | -117.04279 | 11661 ft | 347 kts | 70° |
| 2026-05-04 04:01 | 32.64773 | -117.01575 | 12161 ft | 356 kts | 70° |
| 2026-05-04 04:01 | 32.65679 | -116.98800 | 12523 ft | 369 kts | 70° |
| 2026-05-04 04:02 | 32.66417 | -116.95829 | 12780 ft | 382 kts | 81° |
| 2026-05-04 04:02 | 32.66715 | -116.92712 | 13032 ft | 388 kts | 91° |
| 2026-05-04 04:02 | 32.66775 | -116.89495 | 13285 ft | 391 kts | 91° |
| 2026-05-04 04:02 | 32.66841 | -116.86261 | 13533 ft | 394 kts | 91° |
| 2026-05-04 04:03 | 32.67016 | -116.82999 | 14003 ft | 398 kts | 82° |
| 2026-05-04 04:03 | 32.67752 | -116.79830 | 14575 ft | 400 kts | 68° |
| 2026-05-04 04:03 | 32.69066 | -116.76928 | 15154 ft | 399 kts | 53° |
| 2026-05-04 04:03 | 32.70873 | -116.74454 | 15727 ft | 395 kts | 39° |
| 2026-05-04 04:04 | 32.73063 | -116.72544 | 16346 ft | 388 kts | 24° |
| 2026-05-04 04:04 | 32.75498 | -116.71210 | 16867 ft | 385 kts | 16° |
| 2026-05-04 04:04 | 32.77981 | -116.70007 | 17367 ft | 387 kts | 16° |
| 2026-05-04 04:04 | 32.80484 | -116.68792 | 17881 ft | 389 kts | 15° |
| 2026-05-04 04:05 | 32.82997 | -116.67568 | 18384 ft | 391 kts | 15° |
| 2026-05-04 04:05 | 32.85521 | -116.66332 | 18824 ft | 393 kts | 15° |
| 2026-05-04 04:05 | 32.88054 | -116.65085 | 19290 ft | 395 kts | 15° |
| 2026-05-04 04:05 | 32.90596 | -116.63832 | 19755 ft | 396 kts | 15° |
| 2026-05-04 04:06 | 32.93145 | -116.62576 | 20215 ft | 398 kts | 15° |
| 2026-05-04 04:06 | 32.95708 | -116.61316 | 20696 ft | 399 kts | 15° |
| 2026-05-04 04:06 | 32.98278 | -116.60052 | 21175 ft | 400 kts | 15° |
| 2026-05-04 04:06 | 33.00853 | -116.58786 | 21670 ft | 401 kts | 15° |
| 2026-05-04 04:07 | 33.03420 | -116.57496 | 22171 ft | 401 kts | 16° |
| 2026-05-04 04:07 | 33.05978 | -116.56170 | 22624 ft | 400 kts | 17° |
| 2026-05-04 04:07 | 33.08518 | -116.54829 | 23138 ft | 399 kts | 17° |
| 2026-05-04 04:07 | 33.11051 | -116.53483 | 23640 ft | 397 kts | 16° |
| 2026-05-04 04:08 | 33.13570 | -116.52148 | 24085 ft | 395 kts | 16° |
| 2026-05-04 04:08 | 33.16075 | -116.50829 | 24522 ft | 393 kts | 15° |
| 2026-05-04 04:08 | 33.18604 | -116.49508 | 24720 ft | 399 kts | 15° |
| 2026-05-04 04:08 | 33.21167 | -116.48175 | 24956 ft | 404 kts | 15° |
| 2026-05-04 04:09 | 33.23763 | -116.46825 | 25187 ft | 410 kts | 15° |
| 2026-05-04 04:09 | 33.26390 | -116.45454 | 25419 ft | 415 kts | 14° |
| 2026-05-04 04:09 | 33.29039 | -116.44061 | 25699 ft | 417 kts | 15° |
| 2026-05-04 04:09 | 33.31713 | -116.42649 | 25945 ft | 423 kts | 14° |
| 2026-05-04 04:10 | 33.34423 | -116.41218 | 26182 ft | 429 kts | 16° |
| 2026-05-04 04:10 | 33.37091 | -116.39486 | 26424 ft | 443 kts | 25° |
| 2026-05-04 04:10 | 33.39615 | -116.37284 | 26634 ft | 455 kts | 33° |
| 2026-05-04 04:10 | 33.41937 | -116.34636 | 26866 ft | 467 kts | 43° |
| 2026-05-04 04:11 | 33.43993 | -116.31569 | 27118 ft | 477 kts | 50° |
| 2026-05-04 04:11 | 33.45935 | -116.28323 | 27369 ft | 482 kts | 50° |
| 2026-05-04 04:11 | 33.47898 | -116.25051 | 27611 ft | 485 kts | 49° |
| 2026-05-04 04:11 | 33.49872 | -116.21763 | 27878 ft | 489 kts | 49° |
| 2026-05-04 04:12 | 33.51869 | -116.18433 | 28070 ft | 494 kts | 49° |
| 2026-05-04 04:12 | 33.53882 | -116.15066 | 28255 ft | 500 kts | 49° |
| 2026-05-04 04:12 | 33.55917 | -116.11656 | 28439 ft | 505 kts | 49° |
| 2026-05-04 04:12 | 33.57968 | -116.08211 | 28627 ft | 510 kts | 49° |
| 2026-05-04 04:13 | 33.60104 | -116.04797 | 28813 ft | 511 kts | 43° |
| 2026-05-04 04:13 | 33.62523 | -116.01689 | 29025 ft | 509 kts | 36° |
| 2026-05-04 04:13 | 33.65097 | -115.98749 | 29210 ft | 513 kts | 36° |
| 2026-05-04 04:13 | 33.67689 | -115.95783 | 29400 ft | 518 kts | 36° |
| 2026-05-04 04:14 | 33.70303 | -115.92781 | 29568 ft | 522 kts | 37° |
| 2026-05-04 04:14 | 33.72935 | -115.89751 | 29758 ft | 527 kts | 37° |
| 2026-05-04 04:14 | 33.75591 | -115.86689 | 29928 ft | 531 kts | 37° |
| 2026-05-04 04:14 | 33.78267 | -115.83601 | 30092 ft | 534 kts | 37° |
| 2026-05-04 04:15 | 33.80951 | -115.80500 | 30252 ft | 538 kts | 37° |
| 2026-05-04 04:15 | 33.83657 | -115.77367 | 30415 ft | 541 kts | 37° |
| 2026-05-04 04:15 | 33.86339 | -115.74260 | 30567 ft | 544 kts | 37° |
| 2026-05-04 04:15 | 33.89062 | -115.71107 | 30732 ft | 547 kts | 37° |
| 2026-05-04 04:16 | 33.91822 | -115.67911 | 30896 ft | 550 kts | 37° |
| 2026-05-04 04:16 | 33.94586 | -115.64706 | 31108 ft | 553 kts | 37° |
| 2026-05-04 04:16 | 33.97365 | -115.61477 | 31255 ft | 556 kts | 37° |
| 2026-05-04 04:16 | 34.00146 | -115.58243 | 31423 ft | 557 kts | 37° |
| 2026-05-04 04:17 | 34.02940 | -115.54990 | 31585 ft | 558 kts | 37° |
| 2026-05-04 04:17 | 34.05729 | -115.51738 | 31754 ft | 559 kts | 37° |
| 2026-05-04 04:17 | 34.08520 | -115.48479 | 31908 ft | 559 kts | 37° |
| 2026-05-04 04:17 | 34.11314 | -115.45212 | 32078 ft | 559 kts | 37° |
| 2026-05-04 04:18 | 34.14109 | -115.41943 | 32249 ft | 559 kts | 36° |
| 2026-05-04 04:18 | 34.17049 | -115.38938 | 32408 ft | 550 kts | 27° |
| 2026-05-04 04:18 | 34.20233 | -115.36461 | 32579 ft | 539 kts | 18° |
| 2026-05-04 04:18 | 34.23576 | -115.34532 | 32718 ft | 526 kts | 9° |
| 2026-05-04 04:19 | 34.27000 | -115.33153 | 32762 ft | 510 kts | 1° |
| 2026-05-04 04:19 | 34.30414 | -115.32312 | 32739 ft | 493 kts | 355° |
| 2026-05-04 04:19 | 34.37180 | -115.31005 | 32739 ft | 492 kts | 355° |
| 2026-05-04 04:20 | 34.43941 | -115.29652 | 32736 ft | 492 kts | 355° |
| 2026-05-04 04:20 | 34.50746 | -115.28268 | 32776 ft | 492 kts | 356° |
| 2026-05-04 04:21 | 34.57492 | -115.26908 | 32739 ft | 491 kts | 356° |
| 2026-05-04 04:21 | 34.64230 | -115.25556 | 32742 ft | 491 kts | 356° |
| 2026-05-04 04:22 | 34.70968 | -115.24208 | 32751 ft | 491 kts | 356° |
| 2026-05-04 04:22 | 34.77707 | -115.22851 | 32736 ft | 489 kts | 356° |
| 2026-05-04 04:23 | 34.84419 | -115.21491 | 32761 ft | 489 kts | 356° |
| 2026-05-04 04:23 | 34.91131 | -115.20135 | 32772 ft | 489 kts | 356° |
| 2026-05-04 04:24 | 34.97846 | -115.18777 | 32775 ft | 489 kts | 356° |
| 2026-05-04 04:24 | 35.04538 | -115.17417 | 32787 ft | 487 kts | 357° |
| 2026-05-04 04:25 | 35.11223 | -115.16051 | 32798 ft | 487 kts | 357° |
| 2026-05-04 04:25 | 35.17911 | -115.14692 | 32810 ft | 487 kts | 357° |
| 2026-05-04 04:26 | 35.24590 | -115.13330 | 32810 ft | 487 kts | 358° |
| 2026-05-04 04:26 | 35.31268 | -115.11961 | 32788 ft | 485 kts | 358° |
| 2026-05-04 04:27 | 35.37928 | -115.10603 | 32794 ft | 485 kts | 358° |
| 2026-05-04 04:27 | 35.44591 | -115.09170 | 32795 ft | 493 kts | 3° |
| 2026-05-04 04:28 | 35.47897 | -115.07846 | 32840 ft | 506 kts | 13° |
| 2026-05-04 04:28 | 35.51064 | -115.05866 | 32787 ft | 518 kts | 24° |
| 2026-05-04 04:28 | 35.54003 | -115.03230 | 32800 ft | 529 kts | 34° |
| 2026-05-04 04:28 | 35.56625 | -115.00012 | 32771 ft | 536 kts | 42° |
| 2026-05-04 04:29 | 35.61597 | -114.93200 | 32775 ft | 535 kts | 42° |
| 2026-05-04 04:29 | 35.66576 | -114.86393 | 32622 ft | 536 kts | 42° |
| 2026-05-04 04:30 | 35.69064 | -114.82991 | 32360 ft | 534 kts | 42° |
| 2026-05-04 04:30 | 35.71547 | -114.79595 | 32107 ft | 534 kts | 42° |
| 2026-05-04 04:30 | 35.74029 | -114.76199 | 31809 ft | 534 kts | 43° |
| 2026-05-04 04:30 | 35.76487 | -114.72836 | 31565 ft | 533 kts | 43° |
| 2026-05-04 04:31 | 35.78987 | -114.69412 | 31321 ft | 532 kts | 43° |
| 2026-05-04 04:31 | 35.81428 | -114.66060 | 31079 ft | 531 kts | 43° |
| 2026-05-04 04:31 | 35.83924 | -114.62627 | 30780 ft | 531 kts | 43° |
| 2026-05-04 04:31 | 35.86346 | -114.59289 | 30669 ft | 529 kts | 43° |
| 2026-05-04 04:32 | 35.91260 | -114.52516 | 30701 ft | 530 kts | 43° |
| 2026-05-04 04:32 | 35.96175 | -114.45740 | 30681 ft | 530 kts | 43° |
| 2026-05-04 04:33 | 36.01080 | -114.38958 | 30663 ft | 530 kts | 43° |
| 2026-05-04 04:33 | 36.05155 | -114.33304 | 30669 ft | 529 kts | 42° |
| 2026-05-04 04:34 | 36.10806 | -114.27663 | 30690 ft | 513 kts | 23° |
| 2026-05-04 04:34 | 36.17214 | -114.23954 | 30675 ft | 508 kts | 15° |
| 2026-05-04 04:35 | 36.23691 | -114.20437 | 30678 ft | 509 kts | 16° |
| 2026-05-04 04:35 | 36.30159 | -114.16865 | 30674 ft | 509 kts | 16° |
| 2026-05-04 04:36 | 36.36639 | -114.13295 | 30701 ft | 509 kts | 16° |
| 2026-05-04 04:36 | 36.43124 | -114.09766 | 30697 ft | 509 kts | 15° |
| 2026-05-04 04:37 | 36.56111 | -114.02686 | 30698 ft | 509 kts | 15° |
| 2026-05-04 04:38 | 36.62586 | -113.99114 | 30744 ft | 510 kts | 16° |
| 2026-05-04 04:38 | 36.69080 | -113.95530 | 30731 ft | 511 kts | 16° |
| 2026-05-04 04:39 | 36.75567 | -113.91948 | 31140 ft | 509 kts | 22° |
| 2026-05-04 04:39 | 36.78758 | -113.90182 | 30820 ft | 506 kts | 19° |
| 2026-05-04 04:39 | 36.81983 | -113.88402 | 30911 ft | 508 kts | 19° |
| 2026-05-04 04:40 | 36.85216 | -113.86623 | 30752 ft | 506 kts | 17° |
| 2026-05-04 04:40 | 36.88444 | -113.84845 | 30834 ft | 510 kts | 17° |
| 2026-05-04 04:40 | 36.94944 | -113.81249 | 30836 ft | 511 kts | 17° |
| 2026-05-04 04:41 | 37.01443 | -113.77629 | 30844 ft | 512 kts | 17° |
| 2026-05-04 04:41 | 37.07950 | -113.74012 | 30851 ft | 510 kts | 17° |
| 2026-05-04 04:42 | 37.14420 | -113.70413 | 30868 ft | 508 kts | 17° |
| 2026-05-04 04:42 | 37.20878 | -113.66809 | 30852 ft | 508 kts | 17° |
| 2026-05-04 04:43 | 37.27337 | -113.63190 | 30832 ft | 509 kts | 17° |
| 2026-05-04 04:43 | 37.33803 | -113.59564 | 30844 ft | 509 kts | 17° |
| 2026-05-04 04:44 | 37.40268 | -113.55928 | 30831 ft | 510 kts | 17° |
| 2026-05-04 04:44 | 37.46741 | -113.52289 | 30844 ft | 510 kts | 17° |
| 2026-05-04 04:45 | 37.53220 | -113.48638 | 30854 ft | 510 kts | 17° |
| 2026-05-04 04:47 | 37.75849 | -113.35815 | 30943 ft | 509 kts | 17° |
| 2026-05-04 04:47 | 37.82304 | -113.32142 | 30938 ft | 509 kts | 17° |
| 2026-05-04 04:48 | 37.88761 | -113.28463 | 30940 ft | 508 kts | 18° |
| 2026-05-04 04:49 | 38.04830 | -113.19293 | 30835 ft | 507 kts | 18° |
| 2026-05-04 04:49 | 38.11253 | -113.15601 | 30851 ft | 507 kts | 18° |
| 2026-05-04 04:50 | 38.17668 | -113.11910 | 30887 ft | 503 kts | 19° |
| 2026-05-04 04:50 | 38.24013 | -113.08256 | 30929 ft | 501 kts | 19° |
| 2026-05-04 04:51 | 38.30349 | -113.04603 | 31160 ft | 499 kts | 19° |
| 2026-05-04 04:51 | 38.33515 | -113.02771 | 31426 ft | 500 kts | 19° |
| 2026-05-04 04:51 | 38.36678 | -113.00942 | 31673 ft | 500 kts | 18° |
| 2026-05-04 04:52 | 38.39863 | -112.99162 | 31923 ft | 500 kts | 17° |
| 2026-05-04 04:52 | 38.43069 | -112.97443 | 32172 ft | 499 kts | 16° |
| 2026-05-04 04:52 | 38.46280 | -112.95767 | 32428 ft | 499 kts | 15° |
| 2026-05-04 04:52 | 38.49500 | -112.94103 | 32677 ft | 499 kts | 15° |
| 2026-05-04 04:53 | 38.52717 | -112.92430 | 32897 ft | 500 kts | 15° |
| 2026-05-04 04:53 | 38.55938 | -112.90737 | 32939 ft | 500 kts | 15° |
| 2026-05-04 04:53 | 38.62355 | -112.87309 | 32903 ft | 498 kts | 17° |
| 2026-05-04 04:54 | 38.68675 | -112.83897 | 32828 ft | 496 kts | 17° |
| 2026-05-04 04:54 | 38.75035 | -112.80471 | 32819 ft | 496 kts | 17° |
| 2026-05-04 04:55 | 38.81392 | -112.77050 | 32805 ft | 495 kts | 17° |
| 2026-05-04 04:55 | 38.87738 | -112.73632 | 32802 ft | 493 kts | 18° |
| 2026-05-04 04:56 | 38.94049 | -112.70225 | 32801 ft | 492 kts | 18° |
| 2026-05-04 04:56 | 39.00365 | -112.66812 | 32790 ft | 492 kts | 18° |
| 2026-05-04 04:57 | 39.06673 | -112.63394 | 32792 ft | 492 kts | 18° |
| 2026-05-04 04:57 | 39.12980 | -112.59959 | 32793 ft | 492 kts | 19° |
| 2026-05-04 04:58 | 39.19277 | -112.56525 | 32724 ft | 491 kts | 19° |
| 2026-05-04 04:58 | 39.22421 | -112.54810 | 32182 ft | 489 kts | 20° |
| 2026-05-04 04:58 | 39.25544 | -112.53103 | 31676 ft | 485 kts | 21° |
| 2026-05-04 04:59 | 39.28640 | -112.51411 | 31173 ft | 482 kts | 21° |
| 2026-05-04 04:59 | 39.31787 | -112.50018 | 30680 ft | 476 kts | 13° |
| 2026-05-04 04:59 | 39.34986 | -112.48965 | 30207 ft | 472 kts | 14° |
| 2026-05-04 04:59 | 39.38157 | -112.47922 | 29698 ft | 469 kts | 14° |
| 2026-05-04 05:00 | 39.41310 | -112.46883 | 29138 ft | 465 kts | 14° |
| 2026-05-04 05:00 | 39.44433 | -112.45852 | 28583 ft | 462 kts | 14° |
| 2026-05-04 05:00 | 39.50606 | -112.43797 | 27505 ft | 454 kts | 14° |
| 2026-05-04 05:01 | 39.53651 | -112.42779 | 26985 ft | 450 kts | 14° |
| 2026-05-04 05:01 | 39.56673 | -112.41773 | 26476 ft | 446 kts | 13° |
| 2026-05-04 05:01 | 39.59667 | -112.40783 | 25973 ft | 442 kts | 13° |
| 2026-05-04 05:01 | 39.62628 | -112.39803 | 25474 ft | 435 kts | 13° |
| 2026-05-04 05:02 | 39.65534 | -112.38834 | 24986 ft | 427 kts | 13° |
| 2026-05-04 05:02 | 39.68388 | -112.37876 | 24509 ft | 420 kts | 13° |
| 2026-05-04 05:02 | 39.71196 | -112.36932 | 24039 ft | 414 kts | 13° |
| 2026-05-04 05:02 | 39.73968 | -112.36001 | 23580 ft | 409 kts | 13° |
| 2026-05-04 05:03 | 39.76702 | -112.35082 | 23082 ft | 404 kts | 13° |
| 2026-05-04 05:03 | 39.79409 | -112.34173 | 22535 ft | 399 kts | 13° |
| 2026-05-04 05:04 | 39.87277 | -112.31529 | 20967 ft | 377 kts | 13° |
| 2026-05-04 05:04 | 39.89784 | -112.30688 | 20464 ft | 368 kts | 13° |
| 2026-05-04 05:04 | 39.92236 | -112.29864 | 19968 ft | 360 kts | 13° |
| 2026-05-04 05:06 | 40.08489 | -112.24391 | 16568 ft | 337 kts | 14° |
| 2026-05-04 05:06 | 40.10755 | -112.23624 | 16290 ft | 336 kts | 14° |
| 2026-05-04 05:06 | 40.13012 | -112.22860 | 16011 ft | 334 kts | 14° |
| 2026-05-04 05:07 | 40.15257 | -112.22090 | 15732 ft | 333 kts | 14° |
| 2026-05-04 05:07 | 40.17492 | -112.21321 | 15459 ft | 331 kts | 14° |
| 2026-05-04 05:07 | 40.19715 | -112.20560 | 15186 ft | 330 kts | 14° |
| 2026-05-04 05:09 | 40.37296 | -112.14609 | 13466 ft | 323 kts | 14° |
| 2026-05-04 05:09 | 40.39471 | -112.13879 | 13257 ft | 322 kts | 14° |
| 2026-05-04 05:10 | 40.41644 | -112.13148 | 13128 ft | 322 kts | 14° |
| 2026-05-04 05:10 | 40.43808 | -112.12421 | 12985 ft | 321 kts | 14° |
| 2026-05-04 05:10 | 40.45970 | -112.11704 | 12987 ft | 321 kts | 14° |
| 2026-05-04 05:10 | 40.48139 | -112.10972 | 13001 ft | 321 kts | 15° |
| 2026-05-04 05:11 | 40.50305 | -112.10229 | 13011 ft | 322 kts | 15° |
| 2026-05-04 05:11 | 40.52465 | -112.09471 | 13017 ft | 322 kts | 15° |
| 2026-05-04 05:11 | 40.54632 | -112.08710 | 12802 ft | 321 kts | 14° |
| 2026-05-04 05:11 | 40.56830 | -112.08247 | 12575 ft | 320 kts | 3° |
| 2026-05-04 05:12 | 40.59046 | -112.08093 | 12350 ft | 319 kts | 3° |
| 2026-05-04 05:12 | 40.61262 | -112.07943 | 12134 ft | 318 kts | 3° |
| 2026-05-04 05:12 | 40.63463 | -112.07837 | 12000 ft | 317 kts | 357° |
| 2026-05-04 05:12 | 40.65646 | -112.08222 | 11883 ft | 316 kts | 349° |
| 2026-05-04 05:13 | 40.67815 | -112.08662 | 11756 ft | 316 kts | 352° |
| 2026-05-04 05:13 | 40.69987 | -112.09027 | 11620 ft | 311 kts | 357° |
| 2026-05-04 05:13 | 40.72139 | -112.09132 | 11490 ft | 309 kts | 358° |
| 2026-05-04 05:13 | 40.74295 | -112.09197 | 11356 ft | 312 kts | 359° |
| 2026-05-04 05:14 | 40.76458 | -112.09293 | 11220 ft | 309 kts | 356° |
| 2026-05-04 05:14 | 40.78586 | -112.09496 | 11104 ft | 305 kts | 355° |
| 2026-05-04 05:14 | 40.79976 | -112.09661 | 11028 ft | 298 kts | 354° |
| 2026-05-04 05:14 | 40.81996 | -112.09923 | 10981 ft | 293 kts | 354° |
| 2026-05-04 05:15 | 40.84074 | -112.09974 | 10988 ft | 302 kts | 10° |
| 2026-05-04 05:15 | 40.86032 | -112.08960 | 10525 ft | 307 kts | 35° |
| 2026-05-04 05:15 | 40.87798 | -112.07325 | 9979 ft | 312 kts | 28° |
| 2026-05-04 05:15 | 40.89871 | -112.06498 | 9402 ft | 315 kts | 3° |
| 2026-05-04 05:16 | 40.92058 | -112.06656 | 8814 ft | 317 kts | 349° |
| 2026-05-04 05:16 | 40.94219 | -112.07308 | 8226 ft | 317 kts | 346° |
| 2026-05-04 05:16 | 40.96339 | -112.08020 | 7671 ft | 312 kts | 346° |
| 2026-05-04 05:16 | 40.98420 | -112.08740 | 7131 ft | 307 kts | 346° |
| 2026-05-04 05:17 | 41.00467 | -112.09461 | 6657 ft | 301 kts | 346° |
| 2026-05-04 05:17 | 41.02462 | -112.10184 | 6255 ft | 295 kts | 344° |
| 2026-05-04 05:17 | 41.04429 | -112.10585 | 6032 ft | 278 kts | 6° |
| 2026-05-04 05:17 | 41.06168 | -112.09837 | 6006 ft | 252 kts | 36° |
| 2026-05-04 05:18 | 41.07268 | -112.08214 | 6020 ft | 231 kts | 68° |
| 2026-05-04 05:18 | 41.07474 | -112.06165 | 6263 ft | 225 kts | 102° |
| 2026-05-04 05:18 | 41.06858 | -112.04282 | 6328 ft | 220 kts | 130° |
| 2026-05-04 05:18 | 41.05786 | -112.02951 | 6278 ft | 206 kts | 139° |
| 2026-05-04 05:19 | 41.04566 | -112.02010 | 6197 ft | 203 kts | 159° |
| 2026-05-04 05:19 | 41.03229 | -112.01447 | 6109 ft | 201 kts | 162° |
| 2026-05-04 05:19 | 41.01890 | -112.00933 | 6059 ft | 200 kts | 162° |
| 2026-05-04 05:19 | 41.00565 | -112.00406 | 6028 ft | 199 kts | 160° |
| 2026-05-04 05:20 | 40.99263 | -111.99788 | 6017 ft | 199 kts | 159° |
| 2026-05-04 05:20 | 40.97920 | -111.99356 | 6005 ft | 200 kts | 172° |
| 2026-05-04 05:20 | 40.96541 | -111.99202 | 6004 ft | 198 kts | 174° |
| 2026-05-04 05:20 | 40.95166 | -111.99091 | 5973 ft | 198 kts | 175° |
| 2026-05-04 05:21 | 40.93780 | -111.98996 | 5982 ft | 200 kts | 176° |
| 2026-05-04 05:21 | 40.92385 | -111.98894 | 5985 ft | 201 kts | 175° |
| 2026-05-04 05:21 | 40.90991 | -111.98796 | 5994 ft | 201 kts | 175° |
| 2026-05-04 05:21 | 40.89592 | -111.98709 | 5976 ft | 202 kts | 176° |
| 2026-05-04 05:22 | 40.88193 | -111.98609 | 5766 ft | 198 kts | 175° |
| 2026-05-04 05:22 | 40.86913 | -111.98479 | 5443 ft | 172 kts | 173° |
| 2026-05-04 05:22 | 40.85766 | -111.98312 | 5248 ft | 161 kts | 171° |
| 2026-05-04 05:22 | 40.84674 | -111.98137 | 4993 ft | 155 kts | 172° |
| 2026-05-04 05:23 | 40.83607 | -111.98015 | 4783 ft | 154 kts | 173° |
| 2026-05-04 05:23 | 40.82537 | -111.97880 | 4535 ft | 155 kts | 173° |
| 2026-05-04 05:23 | 40.81470 | -111.97787 | 4359 ft | 153 kts | 173° |
| 2026-05-04 05:23 | 40.80416 | -111.97661 | 4238 ft | 143 kts | 171° |
| 2026-05-04 05:24 | 40.79831 | -111.97594 | 4230 ft | 18 kts | 175° |
| 2026-05-04 05:24 | 40.79721 | -111.97588 | 4229 ft | 6 kts | 197° |
| 2026-05-04 05:24 | 40.79689 | -111.97670 | 4230 ft | 0 kts | 264° |
| 2026-05-04 05:25 | 40.79689 | -111.97677 | 4230 ft | 5 kts | 264° |
| 2026-05-04 05:25 | 40.79672 | -111.97779 | 4230 ft | 9 kts | 240° |
| 2026-05-04 05:25 | 40.79663 | -111.97795 | 4231 ft | 6 kts | 209° |
| 2026-05-04 05:25 | 40.79540 | -111.97775 | 4230 ft | 23 kts | 172° |
| 2026-05-04 05:26 | 40.79382 | -111.97758 | 4231 ft | 23 kts | 177° |
| 2026-05-04 05:26 | 40.79238 | -111.97741 | 4231 ft | 20 kts | 176° |
| 2026-05-04 05:26 | 40.79099 | -111.97723 | 4231 ft | 20 kts | 173° |
| 2026-05-04 05:26 | 40.78959 | -111.97706 | 4231 ft | 20 kts | 174° |
| 2026-05-04 05:27 | 40.78841 | -111.97738 | 4231 ft | 15 kts | 233° |
| 2026-05-04 05:28 | 40.78882 | -111.98037 | 4231 ft | 0 kts | 355° |